Terminal Aerodrome Forecast
Issued by NWS

Home | Current Version | Previous Version | Text Only | Print | Product List | Glossary On
Versions: 1 2 3 4 5 6 7 8 9 10 11 12 13 14 15 16 17 18 19 20 21 22 23 24
000
FTUS46 KPDT 281100
TAFPSC
TAF
KPSC 281120Z 2812/2912 21011KT P6SM BKN080 OVC120
     FM281500 21014G28KT P6SM BKN080 BKN120
     FM281800 22020G30KT P6SM -SHRA SCT050 OVC080=

USA.gov is the U.S. government's official web portal to all federal, state and local government web resources and services.